Time;durP1;ratioP1;P1;durP2;ratioP2;P2;SDS_P1;SDS_P2;PMS_P1;PMS_P2;Temp;Humidity;BMP_temperature;BMP_pressure;BME280_temperature;BME280_humidity;BME280_pressure;Samples;Min_cycle;Max_cycle;Signal;HPM_P1;HPM_P2
2023/08/24 00:02:40;;;;;;;9.80;7.10;;;;;;;16.90;65.76;98876.10;435418;1250;107216;-43
2023/08/24 00:12:47;;;;;;;11.90;7.60;;;;;;;16.74;66.26;98867.41;435509;1253;98410;-41
2023/08/24 00:33:00;;;;;;;11.50;6.20;;;;;;;16.55;66.72;98868.28;435215;1253;507153;-42
2023/08/24 00:43:07;;;;;;;12.30;6.70;;;;;;;16.50;67.17;98872.06;435528;1249;111368;-43
2023/08/24 00:53:12;;;;;;;11.70;8.00;;;;;;;16.32;67.35;98876.80;435405;1250;106550;-44
2023/08/24 01:03:19;;;;;;;8.90;5.90;;;;;;;16.14;67.49;98868.04;435391;1253;99234;-43
2023/08/24 01:13:24;;;;;;;11.50;6.80;;;;;;;16.10;67.70;98871.54;436185;1248;107232;-41
2023/08/24 01:23:32;;;;;;;10.80;7.00;;;;;;;16.05;67.97;98873.05;435992;1251;99247;-42
2023/08/24 01:33:42;;;;;;;10.00;7.10;;;;;;;15.84;68.33;98863.55;435380;1253;110783;-44
2023/08/24 01:53:59;;;;;;;9.80;5.90;;;;;;;15.65;68.83;98861.52;436529;1262;99093;-45
2023/08/24 02:04:04;;;;;;;8.50;5.60;;;;;;;15.71;69.14;98855.73;435502;1253;107764;-43
2023/08/24 02:14:11;;;;;;;12.60;6.70;;;;;;;15.64;69.41;98847.86;436048;1251;98008;-42
2023/08/24 02:24:18;;;;;;;8.90;6.90;;;;;;;15.56;69.67;98846.30;435539;1253;110636;-43
2023/08/24 02:34:26;;;;;;;11.00;6.00;;;;;;;15.48;69.94;98845.80;435323;1251;107102;-43
2023/08/24 02:44:33;;;;;;;8.40;5.40;;;;;;;15.39;70.03;98842.80;436383;1253;99242;-43
2023/08/24 02:54:39;;;;;;;10.00;5.00;;;;;;;15.35;70.39;98838.52;435388;1253;107540;-42
2023/08/24 03:04:46;;;;;;;11.00;6.30;;;;;;;15.54;70.75;98838.22;435523;1253;99218;-42
2023/08/24 03:14:52;;;;;;;11.10;6.40;;;;;;;15.52;70.48;98837.19;435476;1251;110838;-43
2023/08/24 03:25:00;;;;;;;10.70;6.10;;;;;;;15.35;70.60;98841.16;435377;1251;107733;-43
2023/08/24 03:35:08;;;;;;;10.10;6.70;;;;;;;15.36;70.95;98847.84;435437;1263;99256;-43
2023/08/24 03:45:15;;;;;;;9.80;6.10;;;;;;;15.45;71.14;98846.27;435344;1254;108922;-43
2023/08/24 04:05:29;;;;;;;12.80;7.90;;;;;;;15.40;71.39;98856.41;435331;1253;111012;-43
2023/08/24 04:15:36;;;;;;;10.50;6.00;;;;;;;15.41;71.21;98862.53;435399;1253;108098;-43
2023/08/24 04:25:41;;;;;;;8.00;6.50;;;;;;;15.41;71.50;98858.39;435385;1253;99548;-43
2023/08/24 04:35:47;;;;;;;10.10;7.00;;;;;;;15.62;71.63;98854.40;435420;1254;109458;-43
2023/08/24 04:45:56;;;;;;;8.50;6.80;;;;;;;15.87;71.85;98858.23;435571;1253;97975;-44
2023/08/24 04:56:03;;;;;;;11.30;6.40;;;;;;;16.18;72.04;98855.71;435418;1251;111858;-43
2023/08/24 05:06:10;;;;;;;10.60;5.70;;;;;;;17.52;72.08;98853.47;435205;1263;108221;-42
2023/08/24 05:16:17;;;;;;;10.50;5.80;;;;;;;19.30;71.12;98859.04;435781;1251;98754;-44
2023/08/24 05:26:24;;;;;;;15.60;6.40;;;;;;;20.54;69.60;98855.96;435516;1253;107356;-43
2023/08/24 05:36:30;;;;;;;16.60;7.30;;;;;;;21.41;68.51;98862.58;435438;1251;99349;-42
2023/08/24 06:06:47;;;;;;;19.00;6.10;;;;;;;24.17;62.77;98862.06;435524;1251;99212;-44
2023/08/24 06:27:02;;;;;;;15.60;5.00;;;;;;;25.36;59.65;98864.38;435427;1252;97981;-43
2023/08/24 06:47:13;;;;;;;11.40;4.90;;;;;;;26.31;56.63;98869.98;435459;1252;109007;-43
2023/08/24 06:57:20;;;;;;;16.20;5.30;;;;;;;26.78;55.71;98868.21;435253;1251;99244;-44
2023/08/24 07:07:25;;;;;;;14.30;5.40;;;;;;;27.19;54.71;98866.89;435433;1251;107473;-42
2023/08/24 07:27:39;;;;;;;9.50;4.20;;;;;;;27.84;52.34;98864.73;435500;1251;112039;-44
2023/08/24 07:37:46;;;;;;;7.70;3.40;;;;;;;28.16;51.33;98859.09;435557;1254;108169;-44
2023/08/24 07:58:02;;;;;;;5.40;3.30;;;;;;;28.84;49.53;98863.14;435419;1251;107835;-44
2023/08/24 08:18:14;;;;;;;4.10;3.00;;;;;;;28.76;46.38;98864.29;435501;1253;112504;-44
2023/08/24 08:28:20;;;;;;;2.40;1.50;;;;;;;28.77;45.60;98863.15;435377;1262;108028;-44
2023/08/24 09:18:56;;;;;;;5.70;2.60;;;;;;;29.33;41.64;98869.04;435734;1254;108666;-44
2023/08/24 09:59:35;;;;;;;4.90;2.50;;;;;;;28.92;40.95;98850.93;435265;1255;110852;-44
2023/08/24 10:30:10;;;;;;;3.10;2.50;;;;;;;29.03;41.01;98829.08;435527;1253;108858;-43
2023/08/24 10:40:32;;;;;;;2.50;2.30;;;;;;;28.47;41.00;98826.58;435670;1251;99215;-43
2023/08/24 10:50:38;;;;;;;5.60;2.80;;;;;;;28.70;41.25;98827.35;435814;1253;110676;-43
2023/08/24 11:10:59;;;;;;;6.20;2.10;;;;;;;29.60;40.62;98795.12;435984;1251;99673;-42
2023/08/24 11:21:07;;;;;;;6.80;2.50;;;;;;;30.20;40.45;98788.09;435705;1254;108340;-42
2023/08/24 11:31:15;;;;;;;4.60;2.20;;;;;;;30.36;40.03;98777.67;435780;1253;98062;-42
2023/08/24 11:41:22;;;;;;;2.80;2.50;;;;;;;29.85;39.38;98769.63;435718;1253;112168;-41
2023/08/24 11:51:32;;;;;;;3.80;2.70;;;;;;;29.62;39.80;98767.00;435703;1254;108621;-42
2023/08/24 12:01:39;;;;;;;6.70;3.30;;;;;;;29.70;39.38;98763.70;435813;1254;99848;-42
2023/08/24 12:11:50;;;;;;;9.30;2.90;;;;;;;30.08;39.67;98762.26;435671;1253;109378;-43
2023/08/24 12:21:57;;;;;;;7.30;2.60;;;;;;;30.23;39.72;98754.34;436040;1249;97973;-42
2023/08/24 12:32:42;;;;;;;6.10;2.20;;;;;;;30.23;38.79;98741.31;435628;1253;222373;-41
2023/08/24 12:42:48;;;;;;;2.90;2.30;;;;;;;29.93;38.97;98728.25;435930;1250;108374;-43
2023/08/24 13:03:02;;;;;;;4.40;2.30;;;;;;;28.54;39.32;98725.06;435481;1253;108822;-42
2023/08/24 13:13:09;;;;;;;3.90;3.00;;;;;;;28.29;39.87;98714.71;435666;1250;99225;-42
2023/08/24 13:23:16;;;;;;;5.60;3.00;;;;;;;28.24;40.46;98690.16;435598;1253;111239;-44
2023/08/24 13:33:24;;;;;;;5.00;2.60;;;;;;;28.35;40.90;98681.38;435463;1254;107908;-42
2023/08/24 13:43:30;;;;;;;2.80;2.50;;;;;;;28.33;40.85;98676.45;435364;1250;99219;-41
2023/08/24 13:53:36;;;;;;;4.40;3.30;;;;;;;28.18;40.75;98678.08;435045;1253;108162;-41
2023/08/24 14:13:49;;;;;;;6.60;2.70;;;;;;;28.50;40.51;98674.50;435608;1250;111185;-42
2023/08/24 14:23:56;;;;;;;11.10;3.30;;;;;;;28.34;40.72;98674.13;435580;1250;108401;-42
2023/08/24 14:34:04;;;;;;;3.80;3.20;;;;;;;28.39;40.90;98670.77;435579;1251;99326;-43
2023/08/24 14:44:11;;;;;;;3.80;2.20;;;;;;;28.10;40.65;98670.95;435449;1250;107489;-41
2023/08/24 14:54:18;;;;;;;3.00;2.70;;;;;;;27.99;41.21;98665.50;435555;1253;99217;-43
2023/08/24 15:04:23;;;;;;;;;;;;;;;27.97;41.58;98655.42;435563;1253;113014;-43
2023/08/24 15:14:29;;;;;;;7.80;3.60;;;;;;;27.91;41.77;98648.70;435569;1253;107495;-41
2023/08/24 15:24:35;;;;;;;3.60;2.70;;;;;;;27.70;41.66;98646.16;435552;1250;98814;-42
2023/08/24 15:34:39;;;;;;;5.80;3.20;;;;;;;27.39;42.02;98628.81;435657;1253;107441;-42
2023/08/24 15:44:46;;;;;;;12.20;3.20;;;;;;;27.29;42.39;98619.79;435744;1250;99212;-41
2023/08/24 15:54:52;;;;;;;6.30;3.00;;;;;;;27.10;42.64;98598.17;435560;1249;112389;-42
2023/08/24 16:04:59;;;;;;;6.10;2.90;;;;;;;27.01;42.91;98583.36;435658;1253;107975;-42
2023/08/24 16:15:09;;;;;;;5.00;2.70;;;;;;;26.88;43.26;98579.85;435562;1253;97982;-41
2023/08/24 16:25:15;;;;;;;5.50;3.20;;;;;;;26.67;43.50;98574.65;435827;1250;108785;-42
2023/08/24 16:35:22;;;;;;;7.30;2.90;;;;;;;26.37;43.70;98572.61;435702;1251;99224;-42
2023/08/24 16:45:28;;;;;;;3.50;3.00;;;;;;;26.14;44.32;98572.88;435642;1250;110411;-41
2023/08/24 16:55:35;;;;;;;4.90;3.10;;;;;;;25.91;44.51;98565.24;435551;1253;107347;-41
2023/08/24 17:05:42;;;;;;;3.80;3.20;;;;;;;25.66;45.45;98555.95;435539;1251;98703;-43
2023/08/24 17:15:51;;;;;;;10.40;3.10;;;;;;;25.26;46.06;98555.88;435511;1253;107631;-42
2023/08/24 17:25:58;;;;;;;6.10;4.30;;;;;;;24.74;47.37;98557.36;435642;1253;97976;-42
2023/08/24 17:36:06;;;;;;;14.10;4.70;;;;;;;24.29;48.74;98571.68;435715;1251;112538;-42
2023/08/24 17:46:13;;;;;;;8.70;5.00;;;;;;;23.83;49.74;98591.12;435521;1254;108003;-42
2023/08/24 17:56:20;;;;;;;13.40;6.00;;;;;;;23.34;50.78;98598.77;436097;1253;99243;-41
2023/08/24 18:16:32;;;;;;;12.00;6.00;;;;;;;22.48;52.86;98602.16;435549;1253;99111;-42
2023/08/24 18:26:40;;;;;;;15.70;6.40;;;;;;;22.24;53.82;98618.16;435466;1254;112255;-43
2023/08/24 18:56:57;;;;;;;16.10;9.10;;;;;;;21.39;56.26;98608.39;435729;1251;108197;-44
2023/08/24 19:07:07;;;;;;;18.50;9.30;;;;;;;21.17;57.30;98614.29;436559;1253;97989;-42
2023/08/24 19:17:14;;;;;;;18.70;10.50;;;;;;;21.09;58.01;98615.09;436099;1250;111967;-43
2023/08/24 19:27:23;;;;;;;15.10;9.90;;;;;;;20.99;58.49;98603.83;435310;1249;109854;-41
2023/08/24 19:37:29;;;;;;;17.20;10.40;;;;;;;20.67;58.99;98594.10;435544;1251;98101;-41
2023/08/24 19:47:37;;;;;;;15.20;10.00;;;;;;;20.46;59.66;98586.95;436147;1253;108566;-42
2023/08/24 19:57:46;;;;;;;12.60;9.50;;;;;;;20.40;60.04;98580.60;437804;1253;98002;-42
2023/08/24 20:07:53;;;;;;;21.00;10.80;;;;;;;20.24;60.59;98575.05;437597;1250;111702;-41
2023/08/24 20:18:01;;;;;;;16.00;10.30;;;;;;;20.14;61.12;98574.95;437818;1253;107589;-43
2023/08/24 20:28:07;;;;;;;17.40;10.30;;;;;;;20.22;61.53;98568.26;437317;1251;98770;-42
2023/08/24 20:38:13;;;;;;;23.30;11.40;;;;;;;20.21;61.80;98573.05;437623;1253;107356;-41
2023/08/24 20:58:27;;;;;;;33.60;18.50;;;;;;;19.96;62.79;98567.23;437538;1250;111779;-41
2023/08/24 21:08:34;;;;;;;31.10;18.30;;;;;;;19.95;63.30;98563.70;437488;1253;109301;-43
2023/08/24 21:18:39;;;;;;;32.30;18.90;;;;;;;19.85;63.74;98555.27;438024;1251;99211;-42
2023/08/24 21:28:45;;;;;;;30.10;18.00;;;;;;;19.79;64.31;98546.08;437767;1254;108220;-42
2023/08/24 21:48:59;;;;;;;31.50;19.00;;;;;;;19.66;65.24;98525.98;436826;1250;112137;-42
2023/08/24 22:09:12;;;;;;;26.10;16.00;;;;;;;19.43;65.75;98500.81;435701;1253;99205;-42
2023/08/24 22:39:36;;;;;;;25.40;14.50;;;;;;;18.91;67.72;98451.51;435376;1253;111517;-43
2023/08/24 22:49:43;;;;;;;30.00;15.10;;;;;;;18.87;68.19;98444.88;435418;1267;108341;-43
2023/08/24 22:59:50;;;;;;;21.30;12.60;;;;;;;19.03;68.21;98442.95;435403;1250;99287;-43
2023/08/24 23:09:56;;;;;;;19.70;11.30;;;;;;;18.99;68.04;98428.86;435341;1253;109717;-42
2023/08/24 23:30:13;;;;;;;16.00;9.90;;;;;;;18.78;67.78;98451.63;435291;1250;111216;-42
2023/08/24 23:40:18;;;;;;;12.40;9.80;;;;;;;18.73;67.93;98452.66;435451;1263;107610;-41
2023/08/24 23:50:25;;;;;;;14.60;10.20;;;;;;;18.57;68.51;98455.45;435342;1256;98485;-44
